• Join FlightAware (Why Join?)
  • Login
  • US Flag GB Flag 
23:27 EST


 

Airport Tracker/Info


-or-


 

Live Flight TrackerFlight Track Log ✈ ASQ4086 ✈ 08-May-2013 ✈ KVPS - KIAH

Flight Track Log - Related Links

Times and Time Zones

All times are in EDT time to prevent confusion due to time zone crossing. See the ASQ4086 flight status page for this flight to view local times or setup timezone preferences in your user account.

Time Position Orientation Groundspeed Altitude Reporting Facility
EDT Latitude Longitude Course Direction KTS MPH feet Rate Location/Type
12:20 30.5036 -86.4269 265° West 446 513 5,600  Level Jacksonville Center
12:21 30.5578 -86.4242 North 303 349 8,100 2,250 Climbing Jacksonville Center
12:22 30.6206 -86.4217 North 266 306 10,100 1,815 Climbing Jacksonville Center
12:23 30.6939 -86.4147 North 247 284 11,700 1,450 Climbing Jacksonville Center
12:24 30.8000 -86.9682 270° West  Level FlightAware Approximate
12:24 30.7689 -86.4222 355° North 253 291 13,000  Level Jacksonville Center
12:25 30.7948 -87.0734 265° West  Level FlightAware Approximate
12:25 30.7975 -86.5178 289° West 247 284 13,800  Level Jacksonville Center
12:26 30.8194 -86.6250 283° West 288 331 14,600 1,150 Climbing Jacksonville Center
12:27 30.8264 -86.7389 274° West 334 384 16,100 1,450 Climbing Jacksonville Center
12:28 30.8208 -86.8522 267° West 339 390 17,500 1,298 Climbing Jacksonville Center
12:29 30.8053 -87.0469 265° West 349 402 19,800 1,214 Climbing Houston Center
12:30 30.8006 -87.1581 267° West 355 409 21,000 1,258 Climbing Houston Center
12:31 30.7925 -87.2978 266° West 363 418 22,400 1,258 Climbing Houston Center
12:33 30.7858 -87.4153 266° West 365 420 23,600 1,161 Climbing Houston Center
12:34 30.7786 -87.5319 266° West 364 419 24,800 1,152 Climbing Houston Center
12:35 30.7717 -87.6497 266° West 364 419 26,000 1,104 Climbing Houston Center
12:36 30.7636 -87.7625 265° West 362 417 27,100 1,113 Climbing Houston Center
12:37 30.7578 -87.8769 267° West 358 412 28,300 1,258 Climbing Houston Center
12:38 30.7483 -88.0125 265° West 354 407 29,700 823 Climbing Houston Center
12:39 30.7397 -88.1272 265° West 355 409 30,000 145 Climbing Houston Center
12:40 30.7322 -88.2489 266° West 376 433 30,000  Level Houston Center
12:41 30.7217 -88.3744 264° West 389 448 30,000  Level Houston Center
12:42 30.6744 -88.5053 247° West 403 464 30,000 194 Level Houston Center
12:43 30.6328 -88.6275 248° West 407 468 30,400 919 Climbing Houston Center
12:44 30.5911 -88.7469 248° West 399 459 31,900 823 Climbing Houston Center
12:45 30.5497 -88.8656 248° West 399 459 32,100 581 Climbing Houston Center
12:46 30.5044 -89.0022 249° West 408 470 33,100 1,113 Climbing Houston Center
12:47 30.4628 -89.1225 248° West 403 464 34,400 1,306 Climbing Houston Center
12:48 30.4231 -89.2356 248° West 385 443 35,800 768 Climbing Houston Center
12:49 30.3764 -89.3725 248° West 383 441 36,000 96 Climbing Houston Center
12:50 30.3347 -89.4906 248° West 394 453 36,000 -48 Level Houston Center
12:51 30.2922 -89.6097 248° West 398 458 35,900  Descending Houston Center
12:52 30.2475 -89.7281 246° West 394 453 36,000 48 Climbing Houston Center
12:53 30.2058 -89.8497 248° West 396 456 36,000  Level Houston Center
12:54 30.1644 -89.9700 248° West 398 458 36,000  Level Houston Center
12:55 30.1208 -90.0908 247° West 405 466 36,000  Level Houston Center
12:56 30.0775 -90.2122 248° West 408 470 36,000  Level Houston Center
12:57 30.0350 -90.3331 248° West 408 470 36,000  Level Houston Center
12:58 29.9822 -90.4772 247° West 405 466 36,000  Level Houston Center
12:59 29.9386 -90.5950 247° West 403 464 36,000  Level Houston Center
13:00 29.8961 -90.7133 248° West 400 460 36,000  Level Houston Center
13:01 29.8531 -90.8303 247° West 398 458 36,000  Level Houston Center
13:03 29.8100 -90.9483 247° West 400 460 36,000  Level Houston Center
13:04 29.7589 -91.0906 248° West 399 459 36,000  Level Houston Center
13:05 29.7150 -91.2081 247° West 401 461 36,000 -48 Level Houston Center
13:06 29.6711 -91.3269 247° West 403 464 35,900  Descending Houston Center
13:07 29.6536 -91.4533 261° West 400 460 36,000 48 Climbing Houston Center
13:08 29.6408 -91.5794 263° West 399 459 36,000  Level Houston Center
13:09 29.6278 -91.7267 264° West 397 457 36,000  Level Houston Center
13:10 29.6147 -91.8447 263° West 399 459 36,000  Level Houston Center
13:11 29.6025 -91.9728 264° West 401 461 36,000  Level Houston Center
13:12 29.5892 -92.1000 263° West 403 464 36,000  Level Houston Center
13:13 29.5758 -92.2286 263° West 406 467 36,000 -48 Level Houston Center
13:14 29.5594 -92.3842 263° West 407 468 35,900  Descending Houston Center
13:15 29.5458 -92.5133 263° West 408 470 36,000 48 Climbing Houston Center
13:16 29.5322 -92.6419 263° West 407 468 36,000 -194 Level Houston Center
13:17 29.5181 -92.7703 263° West 406 467 35,600 -871 Descending Houston Center
13:18 29.5044 -92.8969 263° West 403 464 34,200 -1,452 Descending Houston Center
13:19 29.4906 -93.0233 263° West 400 460 32,600 -1,645 Descending Houston Center
13:20 29.4894 -93.1778 270° West 402 463 30,800 -1,597 Descending Houston Center
13:21 29.4947 -93.3094 273° West 409 471 29,300 -1,597 Descending Houston Center
13:22 29.4997 -93.4394 273° West 409 471 27,500 -2,032 Descending Houston Center
13:23 29.5050 -93.5697 273° West 408 470 25,100 -2,341 Descending Houston Center
13:24 29.5100 -93.7014 273° West 411 473 22,700 -2,341 Descending Houston Center
13:25 29.5144 -93.8281 272° West 400 460 20,300 -2,323 Descending Houston Center
13:26 29.5197 -93.9503 273° West 387 445 17,900 -2,516 Descending Houston Center
13:27 29.5242 -94.0933 272° West 374 430 15,100 -2,543 Descending Houston Center
13:28 29.5267 -94.1442 273° West 360 414 14,000 -1,839 Descending Houston Center
13:28 29.5286 -94.2006 272° West 359 413 13,200 -1,200 Descending Houston Center
13:29 29.5292 -94.2519 271° West 356 410 12,900 -97 Descending Houston Center
13:29 29.5322 -94.3131 273° West 354 407 13,100 109 Climbing Houston Center
13:30 29.5392 -94.3517 282° West 351 404 13,000 -387 Descending Houston Center
13:30 29.5636 -94.4119 295° West 329 379 12,700 -984 Descending Houston Center
13:31 29.5781 -94.4475 295° West 320 368 12,000 -1,452 Descending Houston Center
13:31 29.6014 -94.5047 295° West 322 371 11,200 -1,086 Descending Houston Center
13:33 29.6575 -94.6347 296° West 333 383 9,900 -629 Descending Houston Center
13:34 29.6917 -94.7147 296° West 332 382 9,900 -615 Level Houston Center
13:35 29.7258 -94.7961 296° West 290 334 8,700 -1,306 Descending Houston Center
13:36 29.7600 -94.8769 296° West 282 325 7,200 -1,595 Descending Houston Center
13:36 29.7744 -94.9111 296° West 288 331 6,600 -1,161 Descending Houston Center
13:37 29.7953 -94.9583 297° West 287 330 6,000 -689 Descending Houston Center
13:37 29.8092 -94.9911 296° West 277 319 5,900 -97 Descending Houston Center
13:38 29.8350 -95.0514 296° West 276 318 5,900 98 Level Houston Center
13:38 29.8417 -95.0689 294° West 269 310 6,000  Climbing Houston Center
13:39 29.8672 -95.1300 296° West 274 315 5,900 55 Descending Houston Center
13:40 29.8983 -95.2097 294° West 276 318 6,100 48 Climbing Houston Center
13:41 29.9008 -95.2947 272° West 265 305 6,000 -48 Descending Houston Center
13:42 29.9006 -95.3783 270° West 265 305 6,000 -48 Level Houston Center
13:43 29.9006 -95.4783 270° West 262 302 5,900 -48 Descending Houston Center
13:44 29.9017 -95.5625 271° West 263 303 5,900  Level Houston Center
13:44 29.8997 -95.5847 264° West 263 303 5,900 -677 Level Houston Center
13:45 29.9022 -95.6467 273° West 264 304 5,200 -984 Descending Houston Center
13:45 29.9014 -95.6761 268° West 265 305 4,900 -1,026 Descending Houston Center
13:46 29.9625 -95.7003 341° North 274 315 3,900 -881 Descending Houston Center
13:47 29.9839 -95.6569 60° Northeast 251 289 3,300 -545 Descending Houston Center
13:48 29.9947 -95.5928 79° East 221 254 2,900 -242 Descending Houston Center
13:49 29.9933 -95.5206 91° East 199 229 2,800 -532 Descending Houston Center
13:50 29.9942 -95.4600 89° East 192 221 1,800 -968 Descending Houston Center